Time;durP1;ratioP1;P1;durP2;ratioP2;P2;SDS_P1;SDS_P2;PMS_P1;PMS_P2;Temp;Humidity;BMP_temperature;BMP_pressure;BME280_temperature;BME280_humidity;BME280_pressure;Samples;Min_cycle;Max_cycle;Signal;HPM_P1;HPM_P2
2023/05/07 00:00:15;;;;;;;;;;;14.20;99.90;;;;;;5094544;27;19942;-76
2023/05/07 00:02:40;;;;;;;;;;;14.10;99.90;;;;;;5113771;27;20041;-76
2023/05/07 00:05:07;;;;;;;;;;;14.10;99.90;;;;;;5095101;27;20017;-76
2023/05/07 00:07:32;;;;;;;;;;;14.10;99.90;;;;;;5105884;27;19930;-76
2023/05/07 00:09:58;;;;;;;;;;;14.10;99.90;;;;;;5096590;27;20308;-76
2023/05/07 00:12:23;;;;;;;;;;;14.10;99.90;;;;;;5091490;27;20283;-76
2023/05/07 00:14:49;;;;;;;;;;;14.10;99.90;;;;;;5090122;28;19928;-76
2023/05/07 00:17:15;;;;;;;;;;;14.00;99.90;;;;;;5093740;27;19928;-77
2023/05/07 00:19:40;;;;;;;;;;;14.00;99.90;;;;;;5103946;27;19923;-77
2023/05/07 00:22:06;;;;;;;;;;;14.00;99.90;;;;;;5103171;27;19987;-77
2023/05/07 00:24:32;;;;;;;;;;;14.00;99.90;;;;;;5101268;27;19923;-77
2023/05/07 00:26:57;;;;;;;;;;;13.90;99.90;;;;;;5085679;27;19991;-76
2023/05/07 00:29:23;;;;;;;;;;;13.90;99.90;;;;;;5100946;27;19931;-76
2023/05/07 00:31:49;;;;;;;;;;;13.90;99.90;;;;;;5102005;27;20010;-76
2023/05/07 00:34:15;;;;;;;;;;;13.90;99.90;;;;;;5103199;27;19934;-76
2023/05/07 00:36:40;;;;;;;;;;;13.80;99.90;;;;;;5102219;27;20524;-76
2023/05/07 00:39:06;;;;;;;;;;;13.80;99.90;;;;;;5082580;27;19927;-76
2023/05/07 00:41:32;;;;;;;;;;;13.80;99.90;;;;;;5100166;27;19932;-75
2023/05/07 00:43:57;;;;;;;;;;;13.70;99.90;;;;;;5102841;27;19928;-76
2023/05/07 00:46:23;;;;;;;;;;;13.70;99.90;;;;;;5121725;27;20340;-76
2023/05/07 00:48:50;;;;;;;;;;;13.70;99.90;;;;;;5123909;27;19982;-76
2023/05/07 00:51:16;;;;;;;;;;;13.60;99.90;;;;;;5097610;27;19931;-76
2023/05/07 00:53:42;;;;;;;;;;;13.60;99.90;;;;;;5104608;27;19962;-76
2023/05/07 00:56:07;;;;;;;;;;;13.50;99.90;;;;;;5104954;27;20015;-76
2023/05/07 00:58:33;;;;;;;;;;;13.40;99.90;;;;;;5103610;27;20619;-76
2023/05/07 01:00:59;;;;;;;;;;;13.40;99.90;;;;;;5096408;27;19927;-76
2023/05/07 01:03:25;;;;;;;;;;;13.30;99.90;;;;;;5120542;27;20383;-76
2023/05/07 01:05:52;;;;;;;;;;;13.30;99.90;;;;;;5101142;27;19927;-76
2023/05/07 01:08:18;;;;;;;;;;;13.30;99.90;;;;;;5103315;27;19931;-76
2023/05/07 01:10:44;;;;;;;;;;;13.20;99.90;;;;;;5102690;27;20400;-76
2023/05/07 01:13:10;;;;;;;;;;;13.20;99.90;;;;;;5118309;27;19943;-77
2023/05/07 01:15:36;;;;;;;;;;;13.10;99.90;;;;;;5121646;27;19934;-76
2023/05/07 01:18:01;;;;;;;;;;;13.10;99.90;;;;;;5121619;27;19924;-76
2023/05/07 01:20:27;;;;;;;;;;;13.10;99.90;;;;;;5121003;27;20529;-76
2023/05/07 01:22:53;;;;;;;;;;;13.10;99.90;;;;;;5100212;27;19995;-76
2023/05/07 01:25:19;;;;;;;;;;;12.90;99.90;;;;;;5119617;27;19980;-76
2023/05/07 01:27:44;;;;;;;;;;;12.90;99.90;;;;;;5105320;27;20389;-76
2023/05/07 01:30:10;;;;;;;;;;;12.90;99.90;;;;;;5115126;27;20351;-75
2023/05/07 01:32:43;;;;;;;;;;;12.90;99.90;;;;;;5114290;27;20337;-76
2023/05/07 01:35:15;;;;;;;;;;;12.80;99.90;;;;;;5092077;27;19927;-75
2023/05/07 01:37:41;;;;;;;;;;;12.70;99.90;;;;;;5091878;27;19932;-76
2023/05/07 01:40:07;;;;;;;;;;;12.70;99.90;;;;;;5100405;27;19935;-75
2023/05/07 01:42:33;;;;;;;;;;;12.70;99.90;;;;;;5100868;27;19948;-75
2023/05/07 01:44:59;;;;;;;;;;;12.60;99.90;;;;;;5096643;27;19931;-75
2023/05/07 01:47:25;;;;;;;;;;;12.60;99.90;;;;;;5117877;27;19938;-75
2023/05/07 01:49:50;;;;;;;;;;;12.60;99.90;;;;;;5098635;27;19981;-75
2023/05/07 01:52:16;;;;;;;;;;;12.60;99.90;;;;;;5094359;27;19973;-75
2023/05/07 01:54:42;;;;;;;;;;;12.60;99.90;;;;;;5101447;27;20011;-75
2023/05/07 01:57:08;;;;;;;;;;;12.60;99.90;;;;;;5110099;27;20015;-75
2023/05/07 01:59:33;;;;;;;;;;;12.50;99.90;;;;;;5095672;27;20485;-75
2023/05/07 02:01:59;;;;;;;;;;;12.40;99.90;;;;;;5099541;27;19932;-75
2023/05/07 02:04:24;;;;;;;;;;;12.40;99.90;;;;;;5104492;27;19934;-76
2023/05/07 02:06:50;;;;;;;;;;;12.40;99.90;;;;;;5116129;27;19992;-75
2023/05/07 02:09:15;;;;;;;;;;;12.30;99.90;;;;;;5116063;27;20525;-76
2023/05/07 02:11:41;;;;;;;;;;;12.40;99.90;;;;;;5096385;27;20373;-76
2023/05/07 02:14:06;;;;;;;;;;;12.20;99.90;;;;;;5120915;27;19980;-76
2023/05/07 02:16:32;;;;;;;;;;;12.20;99.90;;;;;;5116092;27;19924;-77
2023/05/07 02:18:58;;;;;;;;;;;12.20;99.90;;;;;;5117373;27;20551;-76
2023/05/07 02:21:25;;;;;;;;;;;12.10;99.90;;;;;;5095443;27;19924;-76
2023/05/07 02:23:50;;;;;;;;;;;12.10;99.90;;;;;;5094009;27;19939;-77
2023/05/07 02:26:16;;;;;;;;;;;12.10;99.90;;;;;;5100651;27;19927;-76
2023/05/07 02:28:41;;;;;;;;;;;12.10;99.90;;;;;;5068959;27;20031;-76
2023/05/07 02:31:07;;;;;;;;;;;12.00;99.90;;;;;;5117098;27;20377;-75
2023/05/07 02:33:34;;;;;;;;;;;12.00;99.90;;;;;;5095361;27;19950;-76
2023/05/07 02:36:09;;;;;;;;;;;12.00;99.90;;;;;;5098323;27;19923;-76
2023/05/07 02:38:35;;;;;;;;;;;12.00;99.90;;;;;;5099164;27;19938;-76
2023/05/07 02:41:00;;;;;;;;;;;12.00;99.90;;;;;;5098071;27;20022;-76
2023/05/07 02:43:26;;;;;;;;;;;12.00;99.90;;;;;;5098769;27;19932;-76
2023/05/07 02:46:01;;;;;;;;;;;12.00;99.90;;;;;;5103130;27;19923;-75
2023/05/07 02:48:27;;;;;;;;;;;11.90;99.90;;;;;;5096187;27;19947;-76
2023/05/07 02:50:52;;;;;;;;;;;12.00;99.90;;;;;;5100008;27;20485;-75
2023/05/07 02:53:18;;;;;;;;;;;11.90;99.90;;;;;;5114285;27;20216;-76
2023/05/07 02:55:43;;;;;;;;;;;11.90;99.90;;;;;;5119103;27;20350;-76
2023/05/07 02:58:09;;;;;;;;;;;11.90;99.90;;;;;;5110855;27;20377;-76
2023/05/07 03:00:34;;;;;;;;;;;11.80;99.90;;;;;;5099440;27;19976;-76
2023/05/07 03:03:00;;;;;;;;;;;11.90;99.90;;;;;;5100143;27;20400;-75
2023/05/07 03:05:26;;;;;;;;;;;11.90;99.90;;;;;;5101071;27;19984;-76
2023/05/07 03:07:51;;;;;;;;;;;11.90;99.90;;;;;;5116777;27;19927;-75
2023/05/07 03:10:18;;;;;;;;;;;11.80;99.90;;;;;;5100351;27;20415;-76
2023/05/07 03:12:44;;;;;;;;;;;11.90;99.90;;;;;;5097356;27;20018;-76
2023/05/07 03:15:10;;;;;;;;;;;11.80;99.90;;;;;;5095372;27;20018;-75
2023/05/07 03:17:36;;;;;;;;;;;11.90;99.90;;;;;;5095440;27;19924;-75
2023/05/07 03:20:01;;;;;;;;;;;11.90;99.90;;;;;;5094846;27;19980;-76
2023/05/07 03:22:27;;;;;;;;;;;11.90;99.90;;;;;;5094039;27;19927;-76
2023/05/07 03:24:52;;;;;;;;;;;11.90;99.90;;;;;;5119239;27;19981;-76
2023/05/07 03:27:18;;;;;;;;;;;11.80;99.90;;;;;;5097814;27;19935;-76
2023/05/07 03:29:43;;;;;;;;;;;11.80;99.90;;;;;;5099850;27;19972;-76
2023/05/07 03:32:09;;;;;;;;;;;11.70;99.90;;;;;;5095063;27;19932;-77
2023/05/07 03:34:34;;;;;;;;;;;11.70;99.90;;;;;;5116437;27;19923;-76
2023/05/07 03:37:00;;;;;;;;;;;11.70;99.90;;;;;;5116014;27;19958;-76
2023/05/07 03:39:25;;;;;;;;;;;11.80;99.90;;;;;;5116334;27;20466;-77
2023/05/07 03:41:51;;;;;;;;;;;11.70;99.90;;;;;;5118007;27;19928;-77
2023/05/07 03:44:17;;;;;;;;;;;11.70;99.90;;;;;;5094087;28;20922;-77
2023/05/07 03:46:42;;;;;;;;;;;11.70;99.90;;;;;;5093417;27;19927;-76
2023/05/07 03:49:08;;;;;;;;;;;11.70;99.90;;;;;;5121953;27;19924;-76
2023/05/07 03:51:33;;;;;;;;;;;11.70;99.90;;;;;;5117921;27;19972;-77
2023/05/07 03:53:59;;;;;;;;;;;11.70;99.90;;;;;;5098551;27;19930;-74
2023/05/07 03:56:26;;;;;;;;;;;11.70;99.90;;;;;;5101062;27;19934;-76
2023/05/07 03:58:52;;;;;;;;;;;11.70;99.90;;;;;;5097512;27;19927;-76
2023/05/07 04:01:17;;;;;;;;;;;11.70;99.90;;;;;;5096193;27;20356;-76
2023/05/07 04:03:43;;;;;;;;;;;11.80;99.90;;;;;;5116254;27;19935;-76
2023/05/07 04:06:08;;;;;;;;;;;11.70;99.90;;;;;;5098168;27;19934;-76
2023/05/07 04:08:34;;;;;;;;;;;11.70;99.90;;;;;;5116334;27;20411;-75
2023/05/07 04:10:59;;;;;;;;;;;11.60;99.90;;;;;;5100136;28;19931;-76
2023/05/07 04:13:25;;;;;;;;;;;11.60;99.90;;;;;;5096497;27;19955;-76
2023/05/07 04:15:51;;;;;;;;;;;11.70;99.90;;;;;;5100497;27;20001;-77
2023/05/07 04:18:17;;;;;;;;;;;11.60;99.90;;;;;;5101420;27;19923;-76
2023/05/07 04:20:43;;;;;;;;;;;11.70;99.90;;;;;;5115014;27;19987;-76
2023/05/07 04:23:08;;;;;;;;;;;11.60;99.90;;;;;;5099160;28;19927;-76
2023/05/07 04:25:34;;;;;;;;;;;11.60;99.90;;;;;;5096721;27;19935;-76
2023/05/07 04:28:00;;;;;;;;;;;11.70;99.90;;;;;;5099823;28;19932;-76
2023/05/07 04:30:25;;;;;;;;;;;11.70;99.90;;;;;;5116354;27;20340;-76
2023/05/07 04:32:51;;;;;;;;;;;11.60;99.90;;;;;;5100563;28;19939;-77
2023/05/07 04:35:17;;;;;;;;;;;11.60;99.90;;;;;;5099012;28;19931;-76
2023/05/07 04:37:42;;;;;;;;;;;11.70;99.90;;;;;;5117797;27;19931;-75
2023/05/07 04:40:08;;;;;;;;;;;11.70;99.90;;;;;;5118156;27;20392;-77
2023/05/07 04:42:34;;;;;;;;;;;11.70;99.90;;;;;;5095601;27;19932;-77
2023/05/07 04:45:00;;;;;;;;;;;11.70;99.90;;;;;;5098598;28;20624;-77
2023/05/07 04:47:25;;;;;;;;;;;11.70;99.90;;;;;;5102776;28;20336;-76
2023/05/07 04:49:51;;;;;;;;;;;11.70;99.90;;;;;;5099424;28;19952;-76
2023/05/07 04:52:16;;;;;;;;;;;11.70;99.90;;;;;;5111403;27;20400;-76
2023/05/07 04:54:42;;;;;;;;;;;11.70;99.90;;;;;;5100108;27;20348;-76
2023/05/07 04:57:07;;;;;;;;;;;11.80;99.90;;;;;;5117158;27;20669;-74
2023/05/07 04:59:33;;;;;;;;;;;11.70;99.90;;;;;;5098536;28;20386;-76
2023/05/07 05:01:58;;;;;;;;;;;11.60;99.90;;;;;;5095454;28;19931;-76
2023/05/07 05:04:24;;;;;;;;;;;11.70;99.90;;;;;;5119753;27;19995;-76
2023/05/07 05:06:50;;;;;;;;;;;11.70;99.90;;;;;;5099752;27;19927;-76
2023/05/07 05:09:15;;;;;;;;;;;11.70;99.90;;;;;;5100418;27;19935;-77
2023/05/07 05:11:41;;;;;;;;;;;11.70;99.90;;;;;;5102331;27;19927;-76
2023/05/07 05:14:06;;;;;;;;;;;11.90;99.90;;;;;;5123291;27;20022;-76
2023/05/07 05:16:32;;;;;;;;;;;11.90;99.90;;;;;;5098910;27;20304;-76
2023/05/07 05:18:58;;;;;;;;;;;12.00;99.90;;;;;;5101826;27;19928;-76
2023/05/07 05:21:24;;;;;;;;;;;11.90;99.90;;;;;;5103940;27;19935;-76
2023/05/07 05:23:49;;;;;;;;;;;11.90;99.90;;;;;;5103577;27;19959;-76
2023/05/07 05:26:15;;;;;;;;;;;12.00;99.90;;;;;;5120958;27;20764;-76
2023/05/07 05:28:40;;;;;;;;;;;12.00;99.90;;;;;;5101694;27;19938;-77
2023/05/07 05:31:06;;;;;;;;;;;12.00;99.90;;;;;;5099569;27;20381;-77
2023/05/07 05:33:31;;;;;;;;;;;11.90;99.90;;;;;;5099154;27;19927;-76
2023/05/07 05:35:57;;;;;;;;;;;12.10;99.90;;;;;;5098427;27;19931;-76
2023/05/07 05:38:23;;;;;;;;;;;12.00;99.90;;;;;;5101699;27;19927;-76
2023/05/07 05:40:48;;;;;;;;;;;11.90;99.90;;;;;;5098450;27;19970;-77
2023/05/07 05:43:14;;;;;;;;;;;11.90;99.90;;;;;;5098653;27;19924;-76
2023/05/07 05:45:40;;;;;;;;;;;12.00;99.90;;;;;;5081213;27;19939;-76
2023/05/07 05:48:05;;;;;;;;;;;12.00;99.90;;;;;;5100726;27;19923;-76
2023/05/07 05:50:31;;;;;;;;;;;12.00;99.90;;;;;;5119084;27;19957;-77
2023/05/07 05:52:57;;;;;;;;;;;12.00;99.90;;;;;;5099256;27;19931;-76
2023/05/07 05:55:23;;;;;;;;;;;12.10;99.90;;;;;;5120635;27;20077;-76
2023/05/07 05:57:49;;;;;;;;;;;12.20;99.90;;;;;;5100473;27;19940;-76
2023/05/07 06:00:15;;;;;;;;;;;12.20;99.90;;;;;;5100363;27;19927;-76
2023/05/07 06:02:42;;;;;;;;;;;12.10;99.90;;;;;;5095037;27;19934;-76
2023/05/07 06:05:08;;;;;;;;;;;12.20;99.90;;;;;;5097895;27;19933;-76
2023/05/07 06:07:35;;;;;;;;;;;12.20;99.90;;;;;;5098906;27;20153;-75
2023/05/07 06:10:01;;;;;;;;;;;12.20;99.90;;;;;;5102678;27;19967;-75
2023/05/07 06:12:27;;;;;;;;;;;12.30;99.90;;;;;;5119751;27;19932;-76
2023/05/07 06:14:52;;;;;;;;;;;12.30;99.90;;;;;;5119427;27;20014;-76
2023/05/07 06:17:18;;;;;;;;;;;12.10;99.90;;;;;;5103094;27;19935;-77
2023/05/07 06:19:43;;;;;;;;;;;12.20;99.90;;;;;;5098861;27;19935;-77
2023/05/07 06:22:09;;;;;;;;;;;12.10;99.90;;;;;;5102420;27;19931;-76
2023/05/07 06:24:35;;;;;;;;;;;12.20;99.90;;;;;;5098185;27;19927;-77
2023/05/07 06:27:00;;;;;;;;;;;12.30;99.90;;;;;;5099892;27;20339;-76
2023/05/07 06:29:26;;;;;;;;;;;12.30;99.90;;;;;;5100473;27;19930;-77
2023/05/07 06:31:54;;;;;;;;;;;12.30;99.90;;;;;;5095285;27;20064;-77
2023/05/07 06:34:20;;;;;;;;;;;12.50;99.90;;;;;;5097742;27;20392;-77
2023/05/07 06:36:45;;;;;;;;;;;12.30;99.90;;;;;;5099899;27;19927;-77
2023/05/07 06:39:11;;;;;;;;;;;12.40;99.90;;;;;;5103283;27;20034;-76
2023/05/07 06:41:36;;;;;;;;;;;12.40;99.90;;;;;;5101311;27;20014;-76
2023/05/07 06:44:02;;;;;;;;;;;12.40;99.90;;;;;;5082412;27;19997;-76
2023/05/07 06:46:28;;;;;;;;;;;12.40;99.90;;;;;;5100956;27;20026;-77
2023/05/07 06:48:54;;;;;;;;;;;12.40;99.90;;;;;;5101155;27;19931;-76
2023/05/07 06:51:19;;;;;;;;;;;12.50;99.90;;;;;;5102801;27;19927;-76
2023/05/07 06:53:45;;;;;;;;;;;12.60;99.90;;;;;;5097303;27;20107;-76
2023/05/07 06:56:10;;;;;;;;;;;12.60;99.90;;;;;;5095636;27;20897;-78
2023/05/07 06:58:36;;;;;;;;;;;12.60;99.90;;;;;;5101002;27;20399;-76
2023/05/07 07:01:02;;;;;;;;;;;12.60;99.90;;;;;;5102142;27;20010;-76
2023/05/07 07:03:28;;;;;;;;;;;12.70;99.90;;;;;;5099050;27;19949;-75
2023/05/07 07:05:53;;;;;;;;;;;12.80;99.90;;;;;;5120127;27;20388;-75
2023/05/07 07:08:21;;;;;;;;;;;12.90;99.90;;;;;;5117115;27;19927;-76
2023/05/07 07:10:47;;;;;;;;;;;13.00;99.90;;;;;;5102410;27;20421;-76
2023/05/07 07:13:12;;;;;;;;;;;12.80;99.90;;;;;;5073022;27;20023;-75
2023/05/07 07:15:38;;;;;;;;;;;12.90;99.90;;;;;;5080385;27;20359;-76
2023/05/07 07:18:04;;;;;;;;;;;12.90;99.90;;;;;;5098930;27;19931;-76
2023/05/07 07:20:29;;;;;;;;;;;12.70;99.90;;;;;;5072805;28;19958;-77
2023/05/07 07:22:55;;;;;;;;;;;12.80;99.90;;;;;;5099573;27;19977;-76
2023/05/07 07:25:20;;;;;;;;;;;12.90;99.90;;;;;;5102111;27;20365;-76
2023/05/07 07:27:46;;;;;;;;;;;12.70;99.90;;;;;;5100785;27;19966;-76
2023/05/07 07:30:11;;;;;;;;;;;12.80;99.90;;;;;;5102673;27;19935;-77
2023/05/07 07:32:37;;;;;;;;;;;13.00;99.90;;;;;;5099935;27;19923;-78
2023/05/07 07:35:03;;;;;;;;;;;12.80;99.90;;;;;;5102824;27;19927;-76
2023/05/07 07:37:29;;;;;;;;;;;13.00;99.90;;;;;;5102473;27;19966;-77
2023/05/07 07:39:55;;;;;;;;;;;13.00;99.90;;;;;;5085940;27;19957;-77
2023/05/07 07:42:20;;;;;;;;;;;13.10;99.90;;;;;;5101373;27;19944;-77
2023/05/07 07:44:46;;;;;;;;;;;13.10;99.90;;;;;;5115717;27;19923;-76
2023/05/07 07:47:11;;;;;;;;;;;13.40;99.90;;;;;;5120606;27;20413;-76
2023/05/07 07:49:37;;;;;;;;;;;13.30;99.90;;;;;;5118251;27;19935;-77
2023/05/07 07:52:03;;;;;;;;;;;13.30;99.90;;;;;;5095185;27;19934;-77
2023/05/07 07:54:29;;;;;;;;;;;13.30;99.90;;;;;;5104680;27;20087;-76
2023/05/07 07:56:54;;;;;;;;;;;13.30;99.90;;;;;;5118607;27;20054;-76
2023/05/07 07:59:20;;;;;;;;;;;13.80;99.90;;;;;;5119614;27;20006;-76
2023/05/07 08:01:48;;;;;;;;;;;13.40;99.90;;;;;;5117263;27;19928;-77
2023/05/07 08:04:13;;;;;;;;;;;13.90;99.90;;;;;;5104681;27;19927;-76
2023/05/07 08:06:39;;;;;;;;;;;14.00;99.90;;;;;;5110906;27;19976;-77
2023/05/07 08:09:04;;;;;;;;;;;14.20;99.90;;;;;;5098941;27;19928;-76
2023/05/07 08:11:30;;;;;;;;;;;14.00;99.90;;;;;;5106267;27;19928;-76
2023/05/07 08:13:55;;;;;;;;;;;14.50;99.90;;;;;;5112632;27;19932;-78
2023/05/07 08:16:21;;;;;;;;;;;14.20;99.90;;;;;;5115464;28;20010;-77
2023/05/07 08:18:47;;;;;;;;;;;14.10;99.90;;;;;;5116869;28;20520;-77
2023/05/07 08:21:12;;;;;;;;;;;14.10;99.90;;;;;;5098483;28;19928;-77
2023/05/07 08:23:38;;;;;;;;;;;15.10;99.90;;;;;;5093600;28;19928;-77
2023/05/07 08:26:03;;;;;;;;;;;15.00;99.90;;;;;;5113007;28;19972;-79
2023/05/07 08:28:29;;;;;;;;;;;14.80;99.90;;;;;;5116519;28;19929;-77
2023/05/07 08:30:56;;;;;;;;;;;14.50;99.90;;;;;;5115006;28;19939;-78
2023/05/07 08:33:22;;;;;;;;;;;14.90;99.90;;;;;;5115495;28;19927;-77
2023/05/07 08:35:47;;;;;;;;;;;14.60;99.90;;;;;;5115229;27;19934;-77
2023/05/07 08:38:13;;;;;;;;;;;14.60;99.90;;;;;;5115401;27;20434;-76
2023/05/07 08:40:40;;;;;;;;;;;15.00;99.90;;;;;;5117964;27;19924;-77
2023/05/07 08:43:06;;;;;;;;;;;15.50;99.90;;;;;;5120210;27;20269;-78
2023/05/07 08:45:35;;;;;;;;;;;15.30;99.90;;;;;;5105327;27;19923;-77
2023/05/07 08:48:02;;;;;;;;;;;15.20;99.90;;;;;;5119251;27;19933;-78
2023/05/07 08:50:28;;;;;;;;;;;15.50;99.90;;;;;;5117024;27;19931;-77
2023/05/07 08:52:54;;;;;;;;;;;15.30;99.90;;;;;;5119706;27;19935;-77
2023/05/07 08:55:20;;;;;;;;;;;15.40;99.90;;;;;;5117508;27;19958;-78
2023/05/07 08:57:46;;;;;;;;;;;15.20;99.90;;;;;;5121466;27;19958;-79
2023/05/07 09:00:12;;;;;;;;;;;15.40;99.90;;;;;;5118239;27;20143;-78
2023/05/07 09:02:38;;;;;;;;;;;15.30;99.90;;;;;;5118847;27;20471;-78
2023/05/07 09:05:04;;;;;;;;;;;15.80;99.90;;;;;;5100086;27;19935;-79
2023/05/07 09:07:30;;;;;;;;;;;16.50;99.90;;;;;;5119207;27;19971;-78
2023/05/07 09:09:56;;;;;;;;;;;16.80;99.90;;;;;;5117842;27;19928;-79
2023/05/07 09:12:22;;;;;;;;;;;15.90;99.90;;;;;;5119140;27;19988;-78
2023/05/07 09:14:48;;;;;;;;;;;16.40;99.90;;;;;;5118170;27;20367;-78
2023/05/07 09:17:15;;;;;;;;;;;16.10;99.90;;;;;;5117656;27;19935;-78
2023/05/07 09:19:40;;;;;;;;;;;16.50;99.90;;;;;;5120666;27;19981;-79
2023/05/07 09:22:09;;;;;;;;;;;17.00;99.90;;;;;;5103772;27;20421;-77
2023/05/07 09:24:37;;;;;;;;;;;16.30;99.90;;;;;;5119994;27;19950;-77
2023/05/07 09:27:03;;;;;;;;;;;17.00;99.90;;;;;;5119381;27;19970;-78
2023/05/07 09:29:30;;;;;;;;;;;16.60;99.90;;;;;;5117245;27;20292;-77
2023/05/07 09:31:56;;;;;;;;;;;17.30;99.90;;;;;;5101964;27;19939;-78
2023/05/07 09:34:22;;;;;;;;;;;17.30;99.90;;;;;;5091241;27;19931;-78
2023/05/07 09:36:47;;;;;;;;;;;16.30;99.90;;;;;;5116485;27;20339;-78
2023/05/07 09:39:13;;;;;;;;;;;16.30;99.90;;;;;;5120009;27;20027;-77
2023/05/07 09:41:45;;;;;;;;;;;16.90;99.90;;;;;;5119630;27;19928;-79
2023/05/07 09:44:11;;;;;;;;;;;17.20;99.90;;;;;;5118656;27;19952;-79
2023/05/07 09:46:38;;;;;;;;;;;17.70;99.90;;;;;;5107641;27;19928;-78
2023/05/07 09:49:06;;;;;;;;;;;18.30;99.90;;;;;;5111211;27;20520;-78
2023/05/07 09:51:35;;;;;;;;;;;17.30;99.90;;;;;;5103324;27;19927;-78
2023/05/07 09:54:03;;;;;;;;;;;17.40;99.90;;;;;;5104559;27;19931;-79
2023/05/07 09:56:29;;;;;;;;;;;16.50;99.90;;;;;;5093198;27;19967;-77
2023/05/07 09:58:55;;;;;;;;;;;17.00;99.90;;;;;;5100928;27;19927;-78
2023/05/07 10:01:22;;;;;;;;;;;16.60;99.90;;;;;;5099500;27;19933;-78
2023/05/07 10:03:48;;;;;;;;;;;17.30;99.90;;;;;;5083717;27;20414;-77
2023/05/07 10:06:14;;;;;;;;;;;17.00;99.90;;;;;;5094287;27;20019;-78
2023/05/07 10:08:40;;;;;;;;;;;16.80;99.90;;;;;;5101033;27;19927;-78
2023/05/07 10:11:05;;;;;;;;;;;17.40;99.90;;;;;;5103217;27;19942;-78
2023/05/07 10:13:37;;;;;;;;;;;17.80;99.90;;;;;;5077755;27;19967;-79
2023/05/07 10:16:04;;;;;;;;;;;17.10;99.90;;;;;;5101973;27;19927;-77
2023/05/07 10:18:32;;;;;;;;;;;17.10;99.90;;;;;;5079360;27;19924;-77
2023/05/07 10:21:13;;;;;;;;;;;17.20;99.90;;;;;;5103014;27;19927;-79
2023/05/07 10:23:39;;;;;;;;;;;17.30;99.90;;;;;;5108219;27;19976;-78
2023/05/07 10:26:06;;;;;;;;;;;17.10;99.90;;;;;;5109200;27;20494;-77
2023/05/07 10:28:34;;;;;;;;;;;17.50;99.90;;;;;;5117624;27;20386;-77
2023/05/07 10:31:03;;;;;;;;;;;17.70;99.90;;;;;;5116793;27;19923;-78
2023/05/07 10:33:29;;;;;;;;;;;18.00;99.90;;;;;;5112897;27;20308;-77
2023/05/07 10:35:59;;;;;;;;;;;18.40;99.90;;;;;;5118776;27;19923;-77
2023/05/07 10:38:25;;;;;;;;;;;18.80;99.90;;;;;;5101954;27;19989;-78
2023/05/07 10:40:51;;;;;;;;;;;18.50;99.90;;;;;;5090179;27;19939;-77
2023/05/07 10:43:16;;;;;;;;;;;18.70;99.90;;;;;;5112369;27;20018;-78
2023/05/07 10:45:42;;;;;;;;;;;17.70;99.90;;;;;;5116645;27;19933;-77
2023/05/07 10:48:08;;;;;;;;;;;17.50;99.90;;;;;;5106768;27;19931;-78
2023/05/07 10:50:35;;;;;;;;;;;17.70;99.90;;;;;;5106103;27;19931;-77
2023/05/07 10:53:19;;;;;;;;;;;17.90;99.90;;;;;;5114426;27;19959;-77
2023/05/07 10:55:46;;;;;;;;;;;17.90;99.90;;;;;;5097679;27;19923;-78
2023/05/07 10:58:21;;;;;;;;;;;18.00;99.90;;;;;;5112636;27;20014;-79
2023/05/07 11:00:47;;;;;;;;;;;17.80;99.90;;;;;;5112033;27;19928;-78
2023/05/07 11:03:14;;;;;;;;;;;17.70;99.90;;;;;;5109886;27;19934;-78
2023/05/07 11:05:40;;;;;;;;;;;17.60;99.90;;;;;;5113905;27;19927;-77
2023/05/07 11:08:06;;;;;;;;;;;17.50;99.90;;;;;;5105570;27;19927;-77
2023/05/07 11:10:51;;;;;;;;;;;17.40;99.90;;;;;;5108654;27;19939;-77
2023/05/07 11:13:17;;;;;;;;;;;18.40;99.90;;;;;;5107341;27;20622;-78
2023/05/07 11:15:45;;;;;;;;;;;18.80;99.90;;;;;;5106050;27;19934;-78
2023/05/07 11:18:11;;;;;;;;;;;18.90;99.90;;;;;;5108249;27;19932;-77
2023/05/07 11:20:50;;;;;;;;;;;18.20;99.90;;;;;;5110209;27;19943;-79
2023/05/07 11:23:34;;;;;;;;;;;18.70;99.90;;;;;;5112439;27;19935;-78
2023/05/07 11:26:07;;;;;;;;;;;18.50;99.90;;;;;;5111686;27;19927;-77
2023/05/07 11:28:40;;;;;;;;;;;18.50;99.90;;;;;;5109406;27;19971;-78
2023/05/07 11:31:05;;;;;;;;;;;18.40;99.90;;;;;;5110116;27;19981;-77
2023/05/07 11:33:31;;;;;;;;;;;18.00;99.90;;;;;;5112822;27;19974;-77
2023/05/07 11:35:57;;;;;;;;;;;17.90;99.90;;;;;;5112273;27;19934;-77
2023/05/07 11:38:23;;;;;;;;;;;17.90;99.90;;;;;;5111538;27;20422;-78
2023/05/07 11:40:52;;;;;;;;;;;17.80;99.90;;;;;;5109776;27;19931;-78
2023/05/07 11:43:18;;;;;;;;;;;18.30;99.90;;;;;;5113059;27;19931;-79
2023/05/07 11:45:47;;;;;;;;;;;17.60;99.90;;;;;;5111022;27;19931;-77
2023/05/07 11:48:13;;;;;;;;;;;17.60;99.90;;;;;;5114162;27;20006;-77
2023/05/07 11:50:55;;;;;;;;;;;18.00;99.90;;;;;;5112658;27;20396;-79
2023/05/07 11:53:24;;;;;;;;;;;17.80;99.90;;;;;;5111784;27;19932;-78
2023/05/07 11:55:52;;;;;;;;;;;18.30;99.90;;;;;;5111402;27;19942;-78
2023/05/07 11:58:20;;;;;;;;;;;19.00;99.90;;;;;;5111337;27;19924;-78
2023/05/07 12:00:54;;;;;;;;;;;20.20;99.90;;;;;;5116709;27;19927;-77
2023/05/07 12:03:20;;;;;;;;;;;19.30;99.90;;;;;;5112875;27;19946;-79
2023/05/07 12:05:46;;;;;;;;;;;19.60;99.90;;;;;;5116247;27;20531;-79
2023/05/07 12:08:15;;;;;;;;;;;19.90;99.90;;;;;;5110546;27;20069;-78
2023/05/07 12:10:41;;;;;;;;;;;19.20;99.90;;;;;;5110146;27;19946;-79
2023/05/07 12:13:17;;;;;;;;;;;19.10;99.90;;;;;;5107278;27;19942;-78
2023/05/07 12:15:43;;;;;;;;;;;18.80;99.90;;;;;;5108948;27;20604;-79
2023/05/07 12:18:08;;;;;;;;;;;18.50;99.90;;;;;;5108175;28;19977;-79
2023/05/07 12:20:35;;;;;;;;;;;18.80;99.90;;;;;;5102595;27;19935;-78
2023/05/07 12:23:01;;;;;;;;;;;18.80;99.90;;;;;;5105758;28;19930;-78
2023/05/07 12:25:26;;;;;;;;;;;19.10;99.90;;;;;;5113473;28;20466;-78
2023/05/07 12:27:53;;;;;;;;;;;18.40;99.90;;;;;;5112810;28;20030;-77
2023/05/07 12:30:18;;;;;;;;;;;18.10;99.90;;;;;;5113502;28;20490;-79
2023/05/07 12:32:45;;;;;;;;;;;18.50;99.90;;;;;;5109600;28;19956;-79
2023/05/07 12:35:10;;;;;;;;;;;18.40;99.90;;;;;;5111768;28;19932;-78
2023/05/07 12:37:36;;;;;;;;;;;18.40;99.90;;;;;;5112245;28;20004;-78
2023/05/07 12:40:09;;;;;;;;;;;18.60;99.90;;;;;;5116690;27;19927;-79
2023/05/07 12:42:39;;;;;;;;;;;18.70;99.90;;;;;;5108838;28;19935;-79
2023/05/07 12:45:12;;;;;;;;;;;19.20;99.90;;;;;;5114342;28;19923;-79
2023/05/07 12:47:37;;;;;;;;;;;19.00;99.90;;;;;;5112172;28;19970;-78
2023/05/07 12:50:05;;;;;;;;;;;19.70;99.90;;;;;;5110787;28;20711;-79
2023/05/07 12:52:31;;;;;;;;;;;19.10;99.90;;;;;;5109160;28;20022;-79
2023/05/07 12:54:56;;;;;;;;;;;19.20;99.90;;;;;;5112221;28;19967;-79
2023/05/07 12:57:22;;;;;;;;;;;19.10;99.90;;;;;;5108956;28;20031;-78
2023/05/07 12:59:47;;;;;;;;;;;19.50;99.90;;;;;;5085578;28;19975;-78
2023/05/07 13:02:13;;;;;;;;;;;19.90;99.90;;;;;;5107962;28;19927;-78
2023/05/07 13:04:38;;;;;;;;;;;18.50;99.90;;;;;;5107027;28;19927;-78
2023/05/07 13:07:04;;;;;;;;;;;18.30;99.90;;;;;;5107334;28;19924;-78
2023/05/07 13:09:30;;;;;;;;;;;18.90;99.90;;;;;;5107109;28;19930;-78
2023/05/07 13:11:56;;;;;;;;;;;19.20;99.90;;;;;;5108370;28;19931;-79
2023/05/07 13:14:21;;;;;;;;;;;19.20;99.90;;;;;;5108445;28;20052;-78
2023/05/07 13:16:47;;;;;;;;;;;19.70;99.90;;;;;;5101530;28;19935;-79
2023/05/07 13:19:13;;;;;;;;;;;19.30;99.90;;;;;;5105906;28;19939;-79
2023/05/07 13:21:38;;;;;;;;;;;19.70;99.90;;;;;;5106392;28;19924;-78
2023/05/07 13:24:04;;;;;;;;;;;19.30;99.90;;;;;;5104282;27;20018;-80
2023/05/07 13:26:31;;;;;;;;;;;19.30;99.90;;;;;;5108661;27;19934;-80
2023/05/07 13:28:56;;;;;;;;;;;19.80;99.90;;;;;;5111022;27;19938;-80
2023/05/07 13:31:22;;;;;;;;;;;20.00;99.90;;;;;;5110159;27;19927;-79
2023/05/07 13:33:48;;;;;;;;;;;20.40;99.90;;;;;;5113690;27;19928;-79
2023/05/07 13:36:14;;;;;;;;;;;19.70;99.90;;;;;;5112275;27;20392;-79
2023/05/07 13:38:43;;;;;;;;;;;18.90;99.90;;;;;;5109159;27;20018;-78
2023/05/07 13:41:09;;;;;;;;;;;18.70;99.90;;;;;;5114897;27;19954;-79
2023/05/07 13:43:34;;;;;;;;;;;18.50;99.90;;;;;;5093242;27;19946;-78
2023/05/07 13:46:00;;;;;;;;;;;18.50;99.90;;;;;;5116767;27;19931;-79
2023/05/07 13:48:26;;;;;;;;;;;18.80;99.90;;;;;;5109362;27;19923;-79
2023/05/07 13:50:51;;;;;;;;;;;18.60;99.90;;;;;;5104334;27;19935;-78
2023/05/07 13:53:18;;;;;;;;;;;18.60;99.90;;;;;;5100070;27;20293;-78
2023/05/07 13:55:44;;;;;;;;;;;18.70;99.90;;;;;;5104971;27;20751;-78
2023/05/07 13:58:09;;;;;;;;;;;18.70;99.90;;;;;;5104813;27;19971;-79
2023/05/07 14:00:35;;;;;;;;;;;18.50;99.90;;;;;;5087344;27;20467;-78
2023/05/07 14:03:01;;;;;;;;;;;19.00;99.90;;;;;;5099049;27;19981;-78
2023/05/07 14:05:27;;;;;;;;;;;19.70;99.90;;;;;;5103290;27;19930;-79
2023/05/07 14:07:54;;;;;;;;;;;19.40;99.90;;;;;;5106526;27;19927;-79
2023/05/07 14:10:20;;;;;;;;;;;18.60;99.90;;;;;;5101877;27;19931;-78